sensor_id;sensor_type;location;lat;lon;timestamp;pressure;altitude;pressure_sealevel;temperature;humidity
4767;BME280;2397;53.576;9.746;2023-09-07T00:01:00;102302.75;;;19.65;85.77
4767;BME280;2397;53.576;9.746;2023-09-07T00:03:27;102303.28;;;19.61;85.73
4767;BME280;2397;53.576;9.746;2023-09-07T00:05:54;102297.59;;;19.56;85.88
4767;BME280;2397;53.576;9.746;2023-09-07T00:08:20;102293.09;;;19.48;86.23
4767;BME280;2397;53.576;9.746;2023-09-07T00:10:48;102296.97;;;19.46;85.99
4767;BME280;2397;53.576;9.746;2023-09-07T00:13:14;102299.81;;;19.44;86.10
4767;BME280;2397;53.576;9.746;2023-09-07T00:15:41;102299.81;;;19.44;85.97
4767;BME280;2397;53.576;9.746;2023-09-07T00:18:07;102305.00;;;19.46;85.86
4767;BME280;2397;53.576;9.746;2023-09-07T00:20:34;102303.66;;;19.42;85.86
4767;BME280;2397;53.576;9.746;2023-09-07T00:23:02;102300.97;;;19.42;85.85
4767;BME280;2397;53.576;9.746;2023-09-07T00:25:29;102306.19;;;19.35;86.21
4767;BME280;2397;53.576;9.746;2023-09-07T00:27:56;102300.19;;;19.25;86.24
4767;BME280;2397;53.576;9.746;2023-09-07T00:30:23;102301.31;;;19.23;86.87
4767;BME280;2397;53.576;9.746;2023-09-07T00:32:50;102308.66;;;19.21;86.17
4767;BME280;2397;53.576;9.746;2023-09-07T00:35:16;102304.69;;;19.09;86.92
4767;BME280;2397;53.576;9.746;2023-09-07T00:37:43;102308.38;;;19.08;87.09
4767;BME280;2397;53.576;9.746;2023-09-07T00:40:10;102307.38;;;19.01;87.18
4767;BME280;2397;53.576;9.746;2023-09-07T00:42:36;102296.66;;;19.01;86.77
4767;BME280;2397;53.576;9.746;2023-09-07T00:45:03;102300.34;;;19.08;86.59
4767;BME280;2397;53.576;9.746;2023-09-07T00:47:33;102289.97;;;19.05;87.10
4767;BME280;2397;53.576;9.746;2023-09-07T00:50:03;102285.63;;;19.04;86.61
4767;BME280;2397;53.576;9.746;2023-09-07T00:52:33;102288.31;;;19.04;87.13
4767;BME280;2397;53.576;9.746;2023-09-07T00:55:04;102286.59;;;19.03;86.71
4767;BME280;2397;53.576;9.746;2023-09-07T00:57:31;102293.47;;;18.97;86.96
4767;BME280;2397;53.576;9.746;2023-09-07T00:59:59;102296.84;;;18.83;88.07
4767;BME280;2397;53.576;9.746;2023-09-07T01:02:25;102289.63;;;18.84;87.74
4767;BME280;2397;53.576;9.746;2023-09-07T01:04:52;102288.13;;;18.81;87.93
4767;BME280;2397;53.576;9.746;2023-09-07T01:07:22;102290.63;;;18.83;87.64
4767;BME280;2397;53.576;9.746;2023-09-07T01:09:54;102290.97;;;18.72;88.18
4767;BME280;2397;53.576;9.746;2023-09-07T01:12:22;102292.31;;;18.76;88.14
4767;BME280;2397;53.576;9.746;2023-09-07T01:14:49;102293.16;;;18.76;88.12
4767;BME280;2397;53.576;9.746;2023-09-07T01:17:16;102293.00;;;18.78;87.97
4767;BME280;2397;53.576;9.746;2023-09-07T01:19:44;102291.63;;;18.74;88.00
4767;BME280;2397;53.576;9.746;2023-09-07T01:22:11;102289.63;;;18.76;87.98
4767;BME280;2397;53.576;9.746;2023-09-07T01:24:38;102293.47;;;18.73;88.18
4767;BME280;2397;53.576;9.746;2023-09-07T01:27:06;102286.09;;;18.67;88.26
4767;BME280;2397;53.576;9.746;2023-09-07T01:29:33;102290.81;;;18.65;88.63
4767;BME280;2397;53.576;9.746;2023-09-07T01:32:00;102286.44;;;18.64;88.95
4767;BME280;2397;53.576;9.746;2023-09-07T01:34:27;102294.13;;;18.67;88.70
4767;BME280;2397;53.576;9.746;2023-09-07T01:36:53;102294.47;;;18.64;88.50
4767;BME280;2397;53.576;9.746;2023-09-07T01:39:20;102294.44;;;18.56;88.81
4767;BME280;2397;53.576;9.746;2023-09-07T01:41:48;102290.97;;;18.56;88.80
4767;BME280;2397;53.576;9.746;2023-09-07T01:44:15;102286.91;;;18.52;89.45
4767;BME280;2397;53.576;9.746;2023-09-07T01:46:42;102289.28;;;18.55;89.83
4767;BME280;2397;53.576;9.746;2023-09-07T01:49:08;102292.94;;;18.54;89.71
4767;BME280;2397;53.576;9.746;2023-09-07T01:51:36;102280.25;;;18.56;89.92
4767;BME280;2397;53.576;9.746;2023-09-07T01:54:04;102288.09;;;18.57;89.71
4767;BME280;2397;53.576;9.746;2023-09-07T01:56:31;102285.41;;;18.57;89.71
4767;BME280;2397;53.576;9.746;2023-09-07T01:58:58;102283.91;;;18.55;89.79
4767;BME280;2397;53.576;9.746;2023-09-07T02:01:30;102292.25;;;18.52;89.76
4767;BME280;2397;53.576;9.746;2023-09-07T02:03:57;102292.78;;;18.47;90.25
4767;BME280;2397;53.576;9.746;2023-09-07T02:06:24;102295.47;;;18.47;90.24
4767;BME280;2397;53.576;9.746;2023-09-07T02:08:50;102295.28;;;18.49;89.86
4767;BME280;2397;53.576;9.746;2023-09-07T02:11:17;102290.75;;;18.49;89.25
4767;BME280;2397;53.576;9.746;2023-09-07T02:13:46;102300.63;;;18.49;89.51
4767;BME280;2397;53.576;9.746;2023-09-07T02:16:13;102295.94;;;18.51;89.15
4767;BME280;2397;53.576;9.746;2023-09-07T02:18:42;102299.31;;;18.53;89.12
4767;BME280;2397;53.576;9.746;2023-09-07T02:21:15;102300.63;;;18.49;88.81
4767;BME280;2397;53.576;9.746;2023-09-07T02:23:42;102299.97;;;18.47;88.77
4767;BME280;2397;53.576;9.746;2023-09-07T02:26:09;102295.94;;;18.43;88.83
4767;BME280;2397;53.576;9.746;2023-09-07T02:28:35;102298.78;;;18.41;88.73
4767;BME280;2397;53.576;9.746;2023-09-07T02:31:04;102299.47;;;18.43;88.45
4767;BME280;2397;53.576;9.746;2023-09-07T02:33:31;102296.78;;;18.43;88.42
4767;BME280;2397;53.576;9.746;2023-09-07T02:35:58;102304.59;;;18.37;88.41
4767;BME280;2397;53.576;9.746;2023-09-07T02:38:26;102306.63;;;18.35;88.44
4767;BME280;2397;53.576;9.746;2023-09-07T02:40:55;102307.91;;;18.31;88.53
4767;BME280;2397;53.576;9.746;2023-09-07T02:43:21;102305.56;;;18.28;88.65
4767;BME280;2397;53.576;9.746;2023-09-07T02:45:49;102313.09;;;18.24;88.79
4767;BME280;2397;53.576;9.746;2023-09-07T02:48:20;102310.72;;;18.21;88.86
4767;BME280;2397;53.576;9.746;2023-09-07T02:50:48;102314.34;;;18.12;89.11
4767;BME280;2397;53.576;9.746;2023-09-07T02:53:17;102316.84;;;18.06;89.50
4767;BME280;2397;53.576;9.746;2023-09-07T02:55:45;102312.66;;;18.03;89.47
4767;BME280;2397;53.576;9.746;2023-09-07T02:58:11;102324.00;;;17.97;89.19
4767;BME280;2397;53.576;9.746;2023-09-07T03:00:42;102321.16;;;17.99;89.71
4767;BME280;2397;53.576;9.746;2023-09-07T03:03:12;102323.16;;;17.97;89.58
4767;BME280;2397;53.576;9.746;2023-09-07T03:05:40;102319.13;;;17.93;89.66
4767;BME280;2397;53.576;9.746;2023-09-07T03:08:07;102324.66;;;17.91;90.08
4767;BME280;2397;53.576;9.746;2023-09-07T03:10:38;102314.47;;;17.95;90.13
4767;BME280;2397;53.576;9.746;2023-09-07T03:13:07;102317.44;;;17.92;89.92
4767;BME280;2397;53.576;9.746;2023-09-07T03:15:34;102315.78;;;17.91;89.95
4767;BME280;2397;53.576;9.746;2023-09-07T03:18:04;102322.78;;;17.92;90.11
4767;BME280;2397;53.576;9.746;2023-09-07T03:20:34;102318.94;;;17.86;89.90
4767;BME280;2397;53.576;9.746;2023-09-07T03:23:02;102322.28;;;17.88;90.29
4767;BME280;2397;53.576;9.746;2023-09-07T03:25:30;102321.44;;;17.88;90.45
4767;BME280;2397;53.576;9.746;2023-09-07T03:27:56;102326.28;;;17.84;90.58
4767;BME280;2397;53.576;9.746;2023-09-07T03:30:23;102324.09;;;17.80;90.79
4767;BME280;2397;53.576;9.746;2023-09-07T03:32:52;102330.09;;;17.82;90.96
4767;BME280;2397;53.576;9.746;2023-09-07T03:35:19;102327.09;;;17.85;90.94
4767;BME280;2397;53.576;9.746;2023-09-07T03:37:45;102329.94;;;17.83;91.40
4767;BME280;2397;53.576;9.746;2023-09-07T03:40:12;102330.94;;;17.82;91.79
4767;BME280;2397;53.576;9.746;2023-09-07T03:42:39;102327.78;;;17.87;91.63
4767;BME280;2397;53.576;9.746;2023-09-07T03:45:08;102332.13;;;17.88;91.77
4767;BME280;2397;53.576;9.746;2023-09-07T03:47:34;102337.47;;;17.88;91.96
4767;BME280;2397;53.576;9.746;2023-09-07T03:50:01;102339.63;;;17.84;91.91
4767;BME280;2397;53.576;9.746;2023-09-07T03:52:30;102336.13;;;17.84;91.99
4767;BME280;2397;53.576;9.746;2023-09-07T03:55:00;102343.97;;;17.85;91.82
4767;BME280;2397;53.576;9.746;2023-09-07T03:57:27;102338.94;;;17.82;91.95
4767;BME280;2397;53.576;9.746;2023-09-07T03:59:54;102343.56;;;17.72;91.61
4767;BME280;2397;53.576;9.746;2023-09-07T04:02:23;102348.38;;;17.69;92.16
4767;BME280;2397;53.576;9.746;2023-09-07T04:04:51;102339.38;;;17.70;92.54
4767;BME280;2397;53.576;9.746;2023-09-07T04:07:18;102343.72;;;17.71;92.48
4767;BME280;2397;53.576;9.746;2023-09-07T04:09:45;102341.59;;;17.74;92.31
4767;BME280;2397;53.576;9.746;2023-09-07T04:12:12;102344.25;;;17.74;92.13
4767;BME280;2397;53.576;9.746;2023-09-07T04:14:39;102338.06;;;17.74;92.33
4767;BME280;2397;53.576;9.746;2023-09-07T04:17:06;102345.03;;;17.67;92.56
4767;BME280;2397;53.576;9.746;2023-09-07T04:19:32;102340.84;;;17.64;92.77
4767;BME280;2397;53.576;9.746;2023-09-07T04:22:00;102349.84;;;17.63;92.53
4767;BME280;2397;53.576;9.746;2023-09-07T04:24:27;102335.94;;;17.52;92.16
4767;BME280;2397;53.576;9.746;2023-09-07T04:27:00;102342.28;;;17.51;92.36
4767;BME280;2397;53.576;9.746;2023-09-07T04:29:28;102348.41;;;17.43;91.98
4767;BME280;2397;53.576;9.746;2023-09-07T04:31:55;102355.84;;;17.40;92.30
4767;BME280;2397;53.576;9.746;2023-09-07T04:34:22;102352.50;;;17.38;92.22
4767;BME280;2397;53.576;9.746;2023-09-07T04:36:50;102355.19;;;17.38;92.21
4767;BME280;2397;53.576;9.746;2023-09-07T04:39:17;102349.66;;;17.39;92.29
4767;BME280;2397;53.576;9.746;2023-09-07T04:41:44;102358.50;;;17.40;92.40
4767;BME280;2397;53.576;9.746;2023-09-07T04:44:11;102360.06;;;17.42;92.65
4767;BME280;2397;53.576;9.746;2023-09-07T04:46:39;102356.41;;;17.43;92.80
4767;BME280;2397;53.576;9.746;2023-09-07T04:49:06;102367.91;;;17.44;93.03
4767;BME280;2397;53.576;9.746;2023-09-07T04:51:33;102358.91;;;17.45;93.07
4767;BME280;2397;53.576;9.746;2023-09-07T04:53:59;102362.13;;;17.48;92.75
4767;BME280;2397;53.576;9.746;2023-09-07T04:56:26;102359.59;;;17.47;93.02
4767;BME280;2397;53.576;9.746;2023-09-07T04:58:54;102357.28;;;17.52;92.76
4767;BME280;2397;53.576;9.746;2023-09-07T05:01:22;102359.44;;;17.48;93.22
4767;BME280;2397;53.576;9.746;2023-09-07T05:03:50;102354.09;;;17.48;93.31
4767;BME280;2397;53.576;9.746;2023-09-07T05:06:19;102359.28;;;17.50;93.37
4767;BME280;2397;53.576;9.746;2023-09-07T05:08:45;102351.13;;;17.51;93.57
4767;BME280;2397;53.576;9.746;2023-09-07T05:11:12;102355.31;;;17.54;93.45
4767;BME280;2397;53.576;9.746;2023-09-07T05:13:38;102364.69;;;17.58;93.38
4767;BME280;2397;53.576;9.746;2023-09-07T05:16:05;102360.66;;;17.54;93.89
4767;BME280;2397;53.576;9.746;2023-09-07T05:18:34;102361.50;;;17.54;94.17
4767;BME280;2397;53.576;9.746;2023-09-07T05:21:11;102369.66;;;17.53;94.45
4767;BME280;2397;53.576;9.746;2023-09-07T05:23:38;102364.63;;;17.50;94.72
4767;BME280;2397;53.576;9.746;2023-09-07T05:26:04;102364.25;;;17.45;95.10
4767;BME280;2397;53.576;9.746;2023-09-07T05:28:31;102375.31;;;17.50;95.39
4767;BME280;2397;53.576;9.746;2023-09-07T05:30:58;102369.56;;;17.45;95.84
4767;BME280;2397;53.576;9.746;2023-09-07T05:33:25;102371.13;;;17.47;96.03
4767;BME280;2397;53.576;9.746;2023-09-07T05:35:52;102376.97;;;17.51;96.09
4767;BME280;2397;53.576;9.746;2023-09-07T05:38:20;102378.03;;;17.58;96.04
4767;BME280;2397;53.576;9.746;2023-09-07T05:40:46;102372.00;;;17.56;96.08
4767;BME280;2397;53.576;9.746;2023-09-07T05:43:17;102374.16;;;17.52;96.33
4767;BME280;2397;53.576;9.746;2023-09-07T05:45:43;102384.03;;;17.60;96.57
4767;BME280;2397;53.576;9.746;2023-09-07T05:48:11;102379.22;;;17.63;96.49
4767;BME280;2397;53.576;9.746;2023-09-07T05:50:38;102377.41;;;17.64;96.81
4767;BME280;2397;53.576;9.746;2023-09-07T05:53:05;102376.56;;;17.63;96.99
4767;BME280;2397;53.576;9.746;2023-09-07T05:55:32;102383.41;;;17.66;97.20
4767;BME280;2397;53.576;9.746;2023-09-07T05:58:04;102381.59;;;17.66;97.38
4767;BME280;2397;53.576;9.746;2023-09-07T06:00:32;102383.97;;;17.69;97.42
4767;BME280;2397;53.576;9.746;2023-09-07T06:02:58;102386.97;;;17.74;97.79
4767;BME280;2397;53.576;9.746;2023-09-07T06:05:25;102387.19;;;17.81;97.92
4767;BME280;2397;53.576;9.746;2023-09-07T06:07:52;102381.53;;;17.84;98.08
4767;BME280;2397;53.576;9.746;2023-09-07T06:10:19;102398.75;;;17.89;98.46
4767;BME280;2397;53.576;9.746;2023-09-07T06:12:46;102394.00;;;18.01;98.46
4767;BME280;2397;53.576;9.746;2023-09-07T06:15:14;102402.34;;;18.06;98.34
4767;BME280;2397;53.576;9.746;2023-09-07T06:17:41;102392.34;;;18.08;98.17
4767;BME280;2397;53.576;9.746;2023-09-07T06:20:09;102398.09;;;18.21;98.04
4767;BME280;2397;53.576;9.746;2023-09-07T06:22:35;102402.28;;;18.31;97.67
4767;BME280;2397;53.576;9.746;2023-09-07T06:25:02;102397.50;;;18.35;97.31
4767;BME280;2397;53.576;9.746;2023-09-07T06:27:29;102393.19;;;18.42;97.15
4767;BME280;2397;53.576;9.746;2023-09-07T06:29:56;102396.91;;;18.49;97.03
4767;BME280;2397;53.576;9.746;2023-09-07T06:32:22;102401.09;;;18.51;97.00
4767;BME280;2397;53.576;9.746;2023-09-07T06:34:50;102405.28;;;18.62;96.66
4767;BME280;2397;53.576;9.746;2023-09-07T06:37:17;102399.31;;;18.76;95.90
4767;BME280;2397;53.576;9.746;2023-09-07T06:39:44;102395.63;;;18.85;95.61
4767;BME280;2397;53.576;9.746;2023-09-07T06:42:11;102394.00;;;19.00;94.61
4767;BME280;2397;53.576;9.746;2023-09-07T06:44:49;102394.34;;;19.21;93.82
4767;BME280;2397;53.576;9.746;2023-09-07T06:47:16;102394.19;;;19.30;92.68
4767;BME280;2397;53.576;9.746;2023-09-07T06:49:43;102395.19;;;19.37;92.19
4767;BME280;2397;53.576;9.746;2023-09-07T06:52:10;102396.03;;;19.46;91.71
4767;BME280;2397;53.576;9.746;2023-09-07T06:54:38;102394.69;;;19.50;91.63
4767;BME280;2397;53.576;9.746;2023-09-07T06:57:08;102395.19;;;19.69;88.82
4767;BME280;2397;53.576;9.746;2023-09-07T06:59:35;102399.50;;;19.78;87.71
4767;BME280;2397;53.576;9.746;2023-09-07T07:02:03;102401.31;;;19.94;85.93
4767;BME280;2397;53.576;9.746;2023-09-07T07:04:32;102399.28;;;20.04;85.15
4767;BME280;2397;53.576;9.746;2023-09-07T07:06:59;102394.94;;;20.11;83.46
4767;BME280;2397;53.576;9.746;2023-09-07T07:09:28;102391.53;;;20.17;84.25
4767;BME280;2397;53.576;9.746;2023-09-07T07:11:59;102404.94;;;20.17;85.00
4767;BME280;2397;53.576;9.746;2023-09-07T07:14:27;102399.41;;;20.19;85.63
4767;BME280;2397;53.576;9.746;2023-09-07T07:16:54;102402.22;;;20.25;85.48
4767;BME280;2397;53.576;9.746;2023-09-07T07:19:22;102409.59;;;20.31;85.61
4767;BME280;2397;53.576;9.746;2023-09-07T07:21:49;102409.59;;;20.31;85.31
4767;BME280;2397;53.576;9.746;2023-09-07T07:24:16;102409.72;;;20.46;84.12
4767;BME280;2397;53.576;9.746;2023-09-07T07:26:44;102411.78;;;20.66;83.13
4767;BME280;2397;53.576;9.746;2023-09-07T07:29:10;102412.16;;;20.86;82.00
4767;BME280;2397;53.576;9.746;2023-09-07T07:31:38;102411.59;;;20.98;81.83
4767;BME280;2397;53.576;9.746;2023-09-07T07:34:05;102418.59;;;21.07;81.09
4767;BME280;2397;53.576;9.746;2023-09-07T07:36:31;102416.97;;;21.21;80.81
4767;BME280;2397;53.576;9.746;2023-09-07T07:39:02;102425.06;;;21.35;80.27
4767;BME280;2397;53.576;9.746;2023-09-07T07:41:29;102427.47;;;21.53;79.64
4767;BME280;2397;53.576;9.746;2023-09-07T07:43:56;102418.97;;;21.64;79.15
4767;BME280;2397;53.576;9.746;2023-09-07T07:46:23;102424.19;;;21.80;77.88
4767;BME280;2397;53.576;9.746;2023-09-07T07:48:50;102427.63;;;21.88;78.03
4767;BME280;2397;53.576;9.746;2023-09-07T07:51:16;102430.31;;;22.03;77.81
4767;BME280;2397;53.576;9.746;2023-09-07T07:53:45;102420.88;;;22.50;72.51
4767;BME280;2397;53.576;9.746;2023-09-07T07:56:17;102427.44;;;22.62;72.22
4767;BME280;2397;53.576;9.746;2023-09-07T07:58:45;102429.66;;;22.73;72.18
4767;BME280;2397;53.576;9.746;2023-09-07T08:01:17;102421.63;;;22.80;70.96
4767;BME280;2397;53.576;9.746;2023-09-07T08:03:45;102426.66;;;22.83;70.62
4767;BME280;2397;53.576;9.746;2023-09-07T08:06:12;102415.69;;;22.84;68.72
4767;BME280;2397;53.576;9.746;2023-09-07T08:08:40;102422.59;;;22.93;67.75
4767;BME280;2397;53.576;9.746;2023-09-07T08:11:07;102410.28;;;23.05;68.60
4767;BME280;2397;53.576;9.746;2023-09-07T08:13:36;102410.19;;;23.14;67.71
4767;BME280;2397;53.576;9.746;2023-09-07T08:16:04;102412.84;;;23.28;66.68
4767;BME280;2397;53.576;9.746;2023-09-07T08:18:34;102409.94;;;23.30;67.46
4767;BME280;2397;53.576;9.746;2023-09-07T08:21:02;102410.72;;;23.24;69.68
4767;BME280;2397;53.576;9.746;2023-09-07T08:23:29;102405.91;;;23.19;68.19
4767;BME280;2397;53.576;9.746;2023-09-07T08:25:56;102408.13;;;23.16;68.28
4767;BME280;2397;53.576;9.746;2023-09-07T08:28:24;102420.69;;;23.08;69.85
4767;BME280;2397;53.576;9.746;2023-09-07T08:30:52;102421.91;;;23.06;69.72
4767;BME280;2397;53.576;9.746;2023-09-07T08:33:22;102415.44;;;23.00;68.78
4767;BME280;2397;53.576;9.746;2023-09-07T08:35:53;102421.56;;;22.94;70.09
4767;BME280;2397;53.576;9.746;2023-09-07T08:38:21;102423.16;;;22.89;68.41
4767;BME280;2397;53.576;9.746;2023-09-07T08:40:53;102430.69;;;22.93;70.20
4767;BME280;2397;53.576;9.746;2023-09-07T08:43:21;102434.53;;;23.05;71.02
4767;BME280;2397;53.576;9.746;2023-09-07T08:45:55;102429.09;;;22.99;70.14
4767;BME280;2397;53.576;9.746;2023-09-07T08:48:27;102425.94;;;23.17;70.29
4767;BME280;2397;53.576;9.746;2023-09-07T08:50:56;102415.97;;;23.11;69.95
4767;BME280;2397;53.576;9.746;2023-09-07T08:53:22;102420.50;;;23.10;70.35
4767;BME280;2397;53.576;9.746;2023-09-07T08:55:49;102414.50;;;23.08;70.53
4767;BME280;2397;53.576;9.746;2023-09-07T08:58:17;102413.06;;;23.12;70.90
4767;BME280;2397;53.576;9.746;2023-09-07T09:00:43;102407.31;;;23.15;70.05
4767;BME280;2397;53.576;9.746;2023-09-07T09:03:11;102418.81;;;23.24;70.01
4767;BME280;2397;53.576;9.746;2023-09-07T09:05:40;102418.09;;;23.36;70.31
4767;BME280;2397;53.576;9.746;2023-09-07T09:08:07;102416.63;;;23.34;70.12
4767;BME280;2397;53.576;9.746;2023-09-07T09:10:40;102406.41;;;23.50;67.73
4767;BME280;2397;53.576;9.746;2023-09-07T09:13:07;102402.97;;;23.63;66.93
4767;BME280;2397;53.576;9.746;2023-09-07T09:15:34;102404.41;;;23.59;66.51
4767;BME280;2397;53.576;9.746;2023-09-07T09:18:12;102408.38;;;23.63;68.06
4767;BME280;2397;53.576;9.746;2023-09-07T09:20:39;102404.13;;;23.81;65.24
4767;BME280;2397;53.576;9.746;2023-09-07T09:23:06;102416.91;;;23.94;67.57
4767;BME280;2397;53.576;9.746;2023-09-07T09:25:34;102409.84;;;23.93;63.44
4767;BME280;2397;53.576;9.746;2023-09-07T09:28:00;102403.59;;;23.92;63.37
4767;BME280;2397;53.576;9.746;2023-09-07T09:30:27;102405.84;;;23.89;63.67
4767;BME280;2397;53.576;9.746;2023-09-07T09:32:54;102408.53;;;23.89;63.80
4767;BME280;2397;53.576;9.746;2023-09-07T09:35:21;102408.34;;;23.90;64.32
4767;BME280;2397;53.576;9.746;2023-09-07T09:37:49;102403.41;;;23.94;62.50
4767;BME280;2397;53.576;9.746;2023-09-07T09:40:16;102409.13;;;24.12;65.07
4767;BME280;2397;53.576;9.746;2023-09-07T09:42:45;102386.19;;;24.29;61.11
4767;BME280;2397;53.576;9.746;2023-09-07T09:45:12;102396.53;;;24.25;62.06
4767;BME280;2397;53.576;9.746;2023-09-07T09:47:41;102395.31;;;24.28;62.47
4767;BME280;2397;53.576;9.746;2023-09-07T09:50:10;102386.41;;;24.34;61.34
4767;BME280;2397;53.576;9.746;2023-09-07T09:52:38;102389.75;;;24.36;62.53
4767;BME280;2397;53.576;9.746;2023-09-07T09:55:06;102385.22;;;24.43;60.68
4767;BME280;2397;53.576;9.746;2023-09-07T09:57:39;102375.22;;;24.37;61.05
4767;BME280;2397;53.576;9.746;2023-09-07T10:00:08;102379.63;;;24.51;61.04
4767;BME280;2397;53.576;9.746;2023-09-07T10:03:01;102379.22;;;24.54;62.11
4767;BME280;2397;53.576;9.746;2023-09-07T10:05:30;102382.13;;;24.59;62.45
4767;BME280;2397;53.576;9.746;2023-09-07T10:08:03;102377.44;;;24.74;59.48
4767;BME280;2397;53.576;9.746;2023-09-07T10:10:36;102361.88;;;24.89;56.78
4767;BME280;2397;53.576;9.746;2023-09-07T10:13:03;102364.59;;;24.89;58.01
4767;BME280;2397;53.576;9.746;2023-09-07T10:15:31;102354.00;;;25.00;57.66
4767;BME280;2397;53.576;9.746;2023-09-07T10:18:10;102364.81;;;25.07;58.23
4767;BME280;2397;53.576;9.746;2023-09-07T10:20:58;102349.63;;;25.19;56.87
4767;BME280;2397;53.576;9.746;2023-09-07T10:23:35;102346.13;;;25.25;55.92
4767;BME280;2397;53.576;9.746;2023-09-07T10:26:04;102347.78;;;25.26;55.51
4767;BME280;2397;53.576;9.746;2023-09-07T10:28:33;102338.66;;;25.40;55.31
4767;BME280;2397;53.576;9.746;2023-09-07T10:31:05;102338.84;;;25.45;56.24
4767;BME280;2397;53.576;9.746;2023-09-07T10:33:33;102319.50;;;25.48;53.25
4767;BME280;2397;53.576;9.746;2023-09-07T10:36:03;102333.66;;;25.50;54.50
4767;BME280;2397;53.576;9.746;2023-09-07T10:38:34;102329.06;;;25.57;54.50
4767;BME280;2397;53.576;9.746;2023-09-07T10:41:02;102324.47;;;25.64;54.10
4767;BME280;2397;53.576;9.746;2023-09-07T10:43:32;102336.88;;;25.91;54.23
4767;BME280;2397;53.576;9.746;2023-09-07T10:46:00;102312.06;;;26.07;52.75
4767;BME280;2397;53.576;9.746;2023-09-07T10:48:30;102304.72;;;26.27;50.92
4767;BME280;2397;53.576;9.746;2023-09-07T10:50:57;102297.91;;;26.49;49.62
4767;BME280;2397;53.576;9.746;2023-09-07T10:53:26;102290.88;;;26.79;49.10
4767;BME280;2397;53.576;9.746;2023-09-07T10:55:54;102293.22;;;26.94;49.17
4767;BME280;2397;53.576;9.746;2023-09-07T10:58:28;102280.41;;;27.07;48.09
4767;BME280;2397;53.576;9.746;2023-09-07T11:00:57;102277.69;;;27.07;47.82
4767;BME280;2397;53.576;9.746;2023-09-07T11:03:25;102261.28;;;27.02;46.68
4767;BME280;2397;53.576;9.746;2023-09-07T11:05:56;102259.78;;;27.06;46.96
4767;BME280;2397;53.576;9.746;2023-09-07T11:08:24;102260.09;;;27.16;46.53
4767;BME280;2397;53.576;9.746;2023-09-07T11:10:51;102273.88;;;27.39;47.77
4767;BME280;2397;53.576;9.746;2023-09-07T11:13:18;102261.06;;;27.64;47.32
4767;BME280;2397;53.576;9.746;2023-09-07T11:15:45;102253.81;;;27.76;46.14
4767;BME280;2397;53.576;9.746;2023-09-07T11:18:19;102256.66;;;27.81;45.83
4767;BME280;2397;53.576;9.746;2023-09-07T11:20:46;102255.78;;;28.05;45.50
4767;BME280;2397;53.576;9.746;2023-09-07T11:23:13;102245.44;;;28.14;44.63
4767;BME280;2397;53.576;9.746;2023-09-07T11:25:40;102240.75;;;28.21;44.54
4767;BME280;2397;53.576;9.746;2023-09-07T11:28:06;102237.25;;;28.32;44.08
4767;BME280;2397;53.576;9.746;2023-09-07T11:30:33;102236.41;;;28.31;43.97
4767;BME280;2397;53.576;9.746;2023-09-07T11:33:05;102225.19;;;28.39;43.86
4767;BME280;2397;53.576;9.746;2023-09-07T11:35:33;102227.75;;;28.52;43.15
4767;BME280;2397;53.576;9.746;2023-09-07T11:38:01;102222.09;;;28.65;43.14
4767;BME280;2397;53.576;9.746;2023-09-07T11:40:32;102214.91;;;28.94;41.87
4767;BME280;2397;53.576;9.746;2023-09-07T11:42:59;102204.41;;;29.21;41.07
4767;BME280;2397;53.576;9.746;2023-09-07T11:45:26;102188.44;;;29.24;39.99
4767;BME280;2397;53.576;9.746;2023-09-07T11:47:53;102193.63;;;29.37;39.85
4767;BME280;2397;53.576;9.746;2023-09-07T11:50:23;102186.50;;;29.59;39.07
4767;BME280;2397;53.576;9.746;2023-09-07T11:52:49;102186.56;;;29.76;39.87
4767;BME280;2397;53.576;9.746;2023-09-07T11:55:16;102192.25;;;30.02;40.40
4767;BME280;2397;53.576;9.746;2023-09-07T11:57:42;102178.50;;;29.97;38.62
4767;BME280;2397;53.576;9.746;2023-09-07T12:00:09;102172.22;;;29.80;38.19
4767;BME280;2397;53.576;9.746;2023-09-07T12:02:40;102168.22;;;29.99;37.94
4767;BME280;2397;53.576;9.746;2023-09-07T12:05:07;102171.50;;;29.85;38.35
4767;BME280;2397;53.576;9.746;2023-09-07T12:07:36;102172.94;;;30.04;38.62
4767;BME280;2397;53.576;9.746;2023-09-07T12:10:03;102169.81;;;30.12;38.78
4767;BME280;2397;53.576;9.746;2023-09-07T12:12:29;102164.13;;;30.13;37.97
4767;BME280;2397;53.576;9.746;2023-09-07T12:14:56;102160.25;;;30.09;37.88
4767;BME280;2397;53.576;9.746;2023-09-07T12:17:23;102164.59;;;30.22;38.52
4767;BME280;2397;53.576;9.746;2023-09-07T12:19:50;102172.78;;;30.38;39.23
4767;BME280;2397;53.576;9.746;2023-09-07T12:22:17;102171.47;;;30.13;40.27
4767;BME280;2397;53.576;9.746;2023-09-07T12:24:44;102152.06;;;30.09;38.03
4767;BME280;2397;53.576;9.746;2023-09-07T12:27:11;102149.84;;;30.06;38.63
4767;BME280;2397;53.576;9.746;2023-09-07T12:29:37;102148.97;;;29.89;38.75
4767;BME280;2397;53.576;9.746;2023-09-07T12:32:04;102145.19;;;29.90;39.52
4767;BME280;2397;53.576;9.746;2023-09-07T12:34:31;102152.13;;;29.98;39.27
4767;BME280;2397;53.576;9.746;2023-09-07T12:36:58;102138.28;;;29.99;38.62
4767;BME280;2397;53.576;9.746;2023-09-07T12:39:25;102140.59;;;30.07;38.60
4767;BME280;2397;53.576;9.746;2023-09-07T12:41:52;102135.78;;;29.98;38.69
4767;BME280;2397;53.576;9.746;2023-09-07T12:44:18;102133.06;;;29.98;38.42
4767;BME280;2397;53.576;9.746;2023-09-07T12:46:47;102134.78;;;29.87;38.92
4767;BME280;2397;53.576;9.746;2023-09-07T12:49:13;102133.28;;;29.80;39.27
4767;BME280;2397;53.576;9.746;2023-09-07T12:51:45;102137.50;;;29.87;40.90
4767;BME280;2397;53.576;9.746;2023-09-07T12:54:12;102118.22;;;29.89;37.96
4767;BME280;2397;53.576;9.746;2023-09-07T12:56:39;102122.56;;;29.90;38.51
4767;BME280;2397;53.576;9.746;2023-09-07T12:59:05;102112.41;;;29.85;37.79
4767;BME280;2397;53.576;9.746;2023-09-07T13:01:32;102113.34;;;29.91;38.26
4767;BME280;2397;53.576;9.746;2023-09-07T13:03:59;102114.25;;;29.96;39.56
4767;BME280;2397;53.576;9.746;2023-09-07T13:06:26;102107.72;;;29.97;37.70
4767;BME280;2397;53.576;9.746;2023-09-07T13:08:53;102093.06;;;30.15;36.56
4767;BME280;2397;53.576;9.746;2023-09-07T13:11:19;102110.38;;;30.09;38.15
4767;BME280;2397;53.576;9.746;2023-09-07T13:13:46;102095.91;;;30.20;36.39